Time;durP1;ratioP1;P1;durP2;ratioP2;P2;SDS_P1;SDS_P2;PMS_P1;PMS_P2;Temp;Humidity;BMP_temperature;BMP_pressure;BME280_temperature;BME280_humidity;BME280_pressure;Samples;Min_cycle;Max_cycle;Signal;HPM_P1;HPM_P2
2023/03/11 00:04:57;;;;;;;;;;;;;;;17.56;42.48;100073.69;20190012;29;20380;-93
2023/03/11 00:14:58;;;;;;;;;;;;;;;17.58;42.39;100077.06;20186238;29;19924;-95
2023/03/11 00:25:00;;;;;;;;;;;;;;;17.60;42.28;100102.84;20185785;29;19924;-92
2023/03/11 00:35:01;;;;;;;;;;;;;;;17.63;42.29;100134.84;20185565;29;19935;-94
2023/03/11 00:45:03;;;;;;;;;;;;;;;17.66;42.33;100150.69;20186126;29;19924;-95
2023/03/11 00:55:05;;;;;;;;;;;;;;;17.68;42.08;100167.53;20183304;29;19924;-92
2023/03/11 01:05:08;;;;;;;;;;;;;;;17.70;42.04;100178.16;20092700;29;20355;-93
2023/03/11 01:15:17;;;;;;;;;;;;;;;17.71;42.01;100174.47;20105456;29;20323;-93
2023/03/11 01:25:19;;;;;;;;;;;;;;;17.72;42.08;100197.69;20119264;29;19927;-95
2023/03/11 01:35:21;;;;;;;;;;;;;;;17.73;41.82;100199.38;20102526;29;19951;-93
2023/03/11 01:45:28;;;;;;;;;;;;;;;17.72;41.78;100216.53;20117440;29;19924;-93
2023/03/11 01:55:30;;;;;;;;;;;;;;;17.72;41.74;100212.97;20101245;29;20396;-93
2023/03/11 02:05:32;;;;;;;;;;;;;;;17.72;41.63;100211.16;20261298;29;20411;-93
2023/03/11 02:15:34;;;;;;;;;;;;;;;17.72;41.79;100221.91;20234934;29;19927;-94
2023/03/11 02:25:54;;;;;;;;;;;;;;;17.72;41.61;100229.13;20252781;29;19979;-94
2023/03/11 02:35:56;;;;;;;;;;;;;;;17.71;41.58;100236.38;20251281;29;19927;-93
2023/03/11 02:45:58;;;;;;;;;;;;;;;17.70;41.71;100264.28;20248851;29;19959;-92
2023/03/11 02:56:00;;;;;;;;;;;;;;;17.71;41.58;100267.81;20224042;29;19966;-94
2023/03/11 03:06:02;;;;;;;;;;;;;;;17.69;41.34;100257.22;20156563;29;19930;-92
2023/03/11 03:16:04;;;;;;;;;;;;;;;17.68;41.48;100263.59;20172081;29;19927;-93
2023/03/11 03:26:06;;;;;;;;;;;;;;;17.68;41.28;100282.44;20164333;29;19923;-93
2023/03/11 03:36:11;;;;;;;;;;;;;;;17.66;41.32;100287.09;20187565;29;19934;-93
2023/03/11 03:46:24;;;;;;;;;;;;;;;17.66;41.23;100306.81;20186772;29;19930;-94
2023/03/11 03:56:29;;;;;;;;;;;;;;;17.65;41.11;100320.41;20132155;29;19924;-93
2023/03/11 04:06:31;;;;;;;;;;;;;;;17.64;40.89;100334.84;20125266;29;20340;-91
2023/03/11 04:16:38;;;;;;;;;;;;;;;17.63;40.75;100333.16;20123621;29;19927;-92
2023/03/11 04:26:44;;;;;;;;;;;;;;;17.62;40.78;100350.31;20123571;29;20026;-92
2023/03/11 04:36:52;;;;;;;;;;;;;;;17.62;40.71;100358.38;20141960;29;20396;-93
2023/03/11 04:46:58;;;;;;;;;;;;;;;17.60;40.44;100384.59;20199055;29;19932;-95
2023/03/11 04:56:59;;;;;;;;;;;;;;;17.60;40.47;100392.66;20203165;29;19924;-93
2023/03/11 05:07:01;;;;;;;;;;;;;;;17.58;40.31;100398.22;20177566;29;19951;-94
2023/03/11 05:17:04;;;;;;;;;;;;;;;17.57;40.34;100396.53;20163104;29;19924;-94
2023/03/11 05:27:05;;;;;;;;;;;;;;;17.57;40.08;100414.50;20177404;29;19924;-93
2023/03/11 05:37:09;;;;;;;;;;;;;;;17.56;40.00;100423.56;20177062;29;19931;-92
2023/03/11 05:47:10;;;;;;;;;;;;;;;17.54;40.05;100443.41;20173355;29;19924;-93
2023/03/11 05:57:12;;;;;;;;;;;;;;;17.53;39.76;100447.09;20230052;29;19971;-93
2023/03/11 06:07:15;;;;;;;;;;;;;;;17.52;39.63;100442.69;20249692;29;19927;-93
2023/03/11 06:17:19;;;;;;;;;;;;;;;17.51;39.69;100459.00;20249030;29;20281;-92
2023/03/11 06:27:20;;;;;;;;;;;;;;;17.51;39.57;100481.38;20247295;29;20547;-93
2023/03/11 06:37:23;;;;;;;;;;;;;;;17.50;39.28;100490.44;20246997;29;19973;-95
2023/03/11 06:47:25;;;;;;;;;;;;;;;17.52;39.29;100514.53;20228206;29;19924;-95
2023/03/11 06:57:29;;;;;;;;;;;;;;;17.53;39.10;100527.84;20233461;29;19924;-93
2023/03/11 07:07:33;;;;;;;;;;;;;;;17.56;38.67;100540.16;20230213;29;19978;-93
2023/03/11 07:17:37;;;;;;;;;;;;;;;17.61;39.03;100550.50;20229392;29;19924;-92
2023/03/11 07:27:38;;;;;;;;;;;;;;;17.60;38.91;100559.56;20243579;29;20383;-93
2023/03/11 07:37:40;;;;;;;;;;;;;;;17.62;38.81;100565.66;20245162;29;19924;-94
2023/03/11 07:47:41;;;;;;;;;;;;;;;17.64;38.62;100587.88;20219658;29;20042;-94
2023/03/11 07:57:42;;;;;;;;;;;;;;;17.67;38.89;100607.31;20172018;29;19928;-93
2023/03/11 08:07:44;;;;;;;;;;;;;;;17.74;38.76;100612.13;20172136;29;19984;-93
2023/03/11 08:17:45;;;;;;;;;;;;;;;17.78;38.80;100624.31;20181909;29;20000;-92
2023/03/11 08:27:47;;;;;;;;;;;;;;;17.82;38.80;100634.66;20190900;29;19959;-84
2023/03/11 08:37:48;;;;;;;;;;;;;;;17.84;39.08;100639.88;20192752;29;19932;-94
2023/03/11 08:47:49;;;;;;;;;;;;;;;17.86;39.04;100645.16;20207526;29;19931;-94
2023/03/11 08:57:51;;;;;;;;;;;;;;;17.83;39.02;100644.44;20288978;29;19927;-93
2023/03/11 09:07:52;;;;;;;;;;;;;;;17.84;39.18;100647.97;20287308;29;20376;-95
2023/03/11 09:17:54;;;;;;;;;;;;;;;17.82;39.54;100650.81;20282487;29;19934;-94
2023/03/11 09:27:56;;;;;;;;;;;;;;;17.80;39.53;100647.41;20278325;29;19927;-95
2023/03/11 09:37:57;;;;;;;;;;;;;;;17.78;39.81;100649.41;20272545;29;19927;-95
2023/03/11 09:48:07;;;;;;;;;;;;;;;17.75;40.05;100655.06;20247369;29;19926;-93
2023/03/11 09:58:14;;;;;;;;;;;;;;;17.73;40.08;100673.22;20210756;29;19928;-93
2023/03/11 10:08:27;;;;;;;;;;;;;;;17.71;40.24;100677.88;20224067;29;19924;-94
2023/03/11 10:18:46;;;;;;;;;;;;;;;17.69;40.44;100683.41;20220717;29;19971;-94
2023/03/11 10:28:49;;;;;;;;;;;;;;;17.68;40.63;100691.63;20242774;29;19924;-92
2023/03/11 10:38:51;;;;;;;;;;;;;;;17.66;40.65;100699.84;20257997;29;19924;-91
2023/03/11 10:48:53;;;;;;;;;;;;;;;17.65;40.99;100708.91;20262440;29;19908;-83
2023/03/11 10:58:54;;;;;;;;;;;;;;;17.63;40.87;100699.25;20259780;29;19923;-93
2023/03/11 11:09:15;;;;;;;;;;;;;;;17.63;41.10;100691.16;20250964;29;19924;-94
2023/03/11 11:19:17;;;;;;;;;;;;;;;17.62;41.15;100692.16;20256289;29;19924;-92
2023/03/11 11:29:18;;;;;;;;;;;;;;;17.61;41.26;100679.69;20254424;29;19928;-94
2023/03/11 11:39:19;;;;;;;;;;;;;;;17.59;41.42;100682.53;20250575;29;19923;-94
2023/03/11 11:49:25;;;;;;;;;;;;;;;17.59;41.18;100692.44;20249360;29;19955;-91
2023/03/11 11:59:26;;;;;;;;;;;;;;;17.59;41.29;100687.06;20225421;29;20455;-93
2023/03/11 12:09:29;;;;;;;;;;;;;;;17.59;41.20;100681.69;20193264;29;19923;-93
2023/03/11 12:19:33;;;;;;;;;;;;;;;17.58;41.39;100694.31;20145705;29;20415;-92
2023/03/11 12:29:37;;;;;;;;;;;;;;;17.57;41.30;100694.44;20185287;29;19934;-90
2023/03/11 12:39:38;;;;;;;;;;;;;;;17.57;41.24;100689.03;20163695;29;19923;-92
2023/03/11 12:49:42;;;;;;;;;;;;;;;17.57;41.04;100689.03;20177208;29;19979;-90
2023/03/11 13:00:00;;;;;;;;;;;;;;;17.56;41.10;100692.72;20167038;29;20405;-94
2023/03/11 13:10:05;;;;;;;;;;;;;;;17.56;40.77;100687.34;20155936;29;19931;-91
2023/03/11 13:20:27;;;;;;;;;;;;;;;17.54;40.85;100691.03;20158228;29;20010;-90
2023/03/11 13:30:28;;;;;;;;;;;;;;;17.54;40.86;100703.66;20471969;23;19923;-94
2023/03/11 13:40:39;;;;;;;;;;;;;;;17.53;40.76;100705.47;20140516;29;19924;-94
2023/03/11 13:50:43;;;;;;;;;;;;;;;17.53;40.57;100726.16;20098162;29;19924;-93
2023/03/11 14:00:48;;;;;;;;;;;;;;;17.52;40.57;100725.31;20121658;29;19927;-92
2023/03/11 14:10:51;;;;;;;;;;;;;;;17.50;40.16;100724.59;20150814;29;19930;-93
2023/03/11 14:20:53;;;;;;;;;;;;;;;17.51;40.20;100731.69;20151991;29;20007;-90
2023/03/11 14:30:57;;;;;;;;;;;;;;;17.56;40.61;100733.97;20137828;29;19924;-92
2023/03/11 14:40:59;;;;;;;;;;;;;;;17.62;40.91;100741.47;20143444;29;19927;-89
2023/03/11 14:51:01;;;;;;;;;;;;;;;17.68;40.94;100734.72;20137431;29;19923;-89
2023/03/11 15:01:04;;;;;;;;;;;;;;;17.71;40.83;100731.72;20177816;29;19928;-90
2023/03/11 15:11:07;;;;;;;;;;;;;;;17.73;40.72;100736.97;20165663;29;19934;-92
2023/03/11 15:21:13;;;;;;;;;;;;;;;17.74;40.62;100731.44;20139483;29;20043;-90
2023/03/11 15:31:15;;;;;;;;;;;;;;;17.74;40.48;100728.75;20145086;29;19965;-86
2023/03/11 15:41:16;;;;;;;;;;;;;;;17.69;40.35;100731.84;20143339;29;20417;-88
2023/03/11 15:51:18;;;;;;;;;;;;;;;17.64;40.41;100728.75;20153105;29;19957;-88
2023/03/11 16:01:23;;;;;;;;;;;;;;;17.61;40.37;100738.91;20119283;29;19931;-90
2023/03/11 16:11:24;;;;;;;;;;;;;;;17.57;40.50;100735.66;20126920;29;20400;-91
2023/03/11 16:21:33;;;;;;;;;;;;;;;17.54;40.58;100763.69;20125974;29;19967;-91
2023/03/11 16:31:35;;;;;;;;;;;;;;;17.51;40.47;100772.06;20128108;29;19931;-92
2023/03/11 16:41:39;;;;;;;;;;;;;;;17.51;40.77;100749.69;20122703;29;19995;-91
2023/03/11 16:51:40;;;;;;;;;;;;;;;17.05;40.91;100679.28;20133283;29;19935;-90
2023/03/11 17:02:15;;;;;;;;;;;;;;;17.47;40.91;100754.47;21117639;27;19926;-88
2023/03/11 17:12:17;;;;;;;;;;;;;;;17.46;41.00;100758.16;21101349;27;19935;-88
2023/03/11 17:22:19;;;;;;;;;;;;;;;17.45;40.88;100763.66;21102055;27;19961;-85
2023/03/11 17:32:20;;;;;;;;;;;;;;;17.45;41.31;100771.72;21102709;27;20018;-92
2023/03/11 17:42:22;;;;;;;;;;;;;;;17.44;41.49;100802.31;21114066;27;19928;-91
2023/03/11 17:52:23;;;;;;;;;;;;;;;17.42;41.52;100797.09;21123811;27;19930;-94
2023/03/11 18:02:24;;;;;;;;;;;;;;;17.40;41.63;100799.06;21116186;27;20291;-90
2023/03/11 18:12:26;;;;;;;;;;;;;;;17.39;41.61;100798.19;21095296;27;20453;-88
2023/03/11 18:22:27;;;;;;;;;;;;;;;17.39;41.77;100810.81;21092637;27;19924;-90
2023/03/11 18:32:29;;;;;;;;;;;;;;;17.37;41.72;100812.81;21091195;27;19932;-87
2023/03/11 18:42:31;;;;;;;;;;;;;;;17.37;41.84;100818.19;21110352;27;19934;-91
2023/03/11 18:52:32;;;;;;;;;;;;;;;17.34;41.79;100813.91;21135742;27;19923;-91
2023/03/11 19:02:33;;;;;;;;;;;;;;;17.35;41.95;100825.53;21137090;27;20383;-91
2023/03/11 19:12:35;;;;;;;;;;;;;;;17.34;42.04;100824.66;21134524;27;20072;-91
2023/03/11 19:22:37;;;;;;;;;;;;;;;17.34;42.24;100823.84;21134847;27;19935;-90
2023/03/11 19:32:38;;;;;;;;;;;;;;;17.32;42.08;100820.44;21132140;27;19924;-90
2023/03/11 19:42:40;;;;;;;;;;;;;;;17.32;42.23;100834.72;21131909;27;19924;-91
2023/03/11 19:52:41;;;;;;;;;;;;;;;17.29;42.15;100831.47;21131764;27;19935;-91
2023/03/11 20:02:43;;;;;;;;;;;;;;;17.28;42.14;100835.97;21132426;27;19930;-90
2023/03/11 20:12:45;;;;;;;;;;;;;;;17.28;41.96;100835.13;21131121;27;19923;-90
2023/03/11 20:23:01;;;;;;;;;;;;;;;17.25;42.10;100834.41;21131792;27;20395;-91
2023/03/11 20:33:03;;;;;;;;;;;;;;;17.26;42.17;100843.31;21123699;27;19932;-89
2023/03/11 20:43:04;;;;;;;;;;;;;;;17.25;42.13;100842.50;21128512;28;20444;-91
2023/03/11 20:53:06;;;;;;;;;;;;;;;17.24;42.07;100842.63;21129082;28;19928;-90
2023/03/11 21:03:07;;;;;;;;;;;;;;;17.23;42.20;100843.59;21127739;28;19931;-91
2023/03/11 21:13:09;;;;;;;;;;;;;;;17.22;42.08;100848.13;21128158;27;19928;-92
2023/03/11 21:23:10;;;;;;;;;;;;;;;17.21;42.19;100851.78;21126780;28;20202;-91
2023/03/11 21:33:12;;;;;;;;;;;;;;;17.22;42.02;100853.50;21127135;28;19924;-91
2023/03/11 21:43:14;;;;;;;;;;;;;;;17.20;42.09;100846.56;21133578;27;20047;-91
2023/03/11 21:53:15;;;;;;;;;;;;;;;17.19;42.00;100853.75;21142808;27;19932;-91
2023/03/11 22:03:17;;;;;;;;;;;;;;;17.17;41.87;100847.66;21143430;27;19969;-91
2023/03/11 22:13:19;;;;;;;;;;;;;;;17.18;41.90;100845.84;21139354;27;19924;-92
2023/03/11 22:23:20;;;;;;;;;;;;;;;17.16;41.91;100851.34;21121617;27;19963;-92
2023/03/11 22:33:22;;;;;;;;;;;;;;;17.14;41.88;100850.63;21135430;27;20387;-90
2023/03/11 22:43:24;;;;;;;;;;;;;;;17.14;41.91;100845.25;21137688;27;19971;-91
2023/03/11 22:53:25;;;;;;;;;;;;;;;17.13;41.89;100853.47;21137215;27;20351;-91
2023/03/11 23:03:26;;;;;;;;;;;;;;;17.14;41.87;100850.63;21137602;27;19931;-90
2023/03/11 23:13:29;;;;;;;;;;;;;;;17.13;41.87;100848.91;21136462;27;20299;-90
2023/03/11 23:23:30;;;;;;;;;;;;;;;17.12;41.73;100843.69;21132818;27;19924;-90
2023/03/11 23:33:32;;;;;;;;;;;;;;;17.12;41.71;100841.00;21128889;27;19934;-88
2023/03/11 23:43:33;;;;;;;;;;;;;;;17.12;41.69;100838.31;21133143;27;21007;-89
2023/03/11 23:53:35;;;;;;;;;;;;;;;17.10;41.85;100828.53;21131630;27;19924;-90
